CDT,Max TemperatureF,Mean TemperatureF,Min TemperatureF,Max Dew PointF,MeanDew PointF,Min DewpointF,Max Humidity, Mean Humidity, Min Humidity, Max Sea Level PressureIn, Mean Sea Level PressureIn, Min Sea Level PressureIn, Max VisibilityMiles, Mean VisibilityMiles, Min VisibilityMiles, Max Wind SpeedMPH, Mean Wind SpeedMPH, Max Gust SpeedMPH,PrecipitationIn, CloudCover, Events, WindDirDegrees
2011-10-1,59,46,33,40,35,31,95,74,35,30.39,30.32,30.26,10,10,10,7,1,,0.00,0,,146
2011-10-2,69,50,32,48,39,32,100,79,32,30.31,30.25,30.17,10,8,0,0,0,,0.00,2,Fog,-1
2011-10-3,75,58,40,54,44,39,96,73,30,30.26,30.21,30.17,10,10,7,4,0,,0.00,0,,182
2011-10-4,77,60,44,52,47,43,96,70,31,30.28,30.22,30.14,10,10,5,7,2,,0.00,0,,130
2011-10-5,81,64,47,54,48,42,95,65,25,30.21,30.16,30.10,10,10,4,9,3,,0.00,0,,134
2011-10-6,79,64,48,54,49,46,95,66,33,30.20,30.15,30.09,10,8,1,13,4,22,0.00,0,,120
2011-10-7,82,72,61,53,50,43,68,47,25,30.17,30.11,30.06,10,10,10,17,8,25,0.00,0,,141
2011-10-8,82,73,64,55,52,50,64,50,33,30.21,30.16,30.12,10,10,10,14,8,21,0.00,0,,154
2011-10-9,79,67,55,56,52,48,82,60,38,30.30,30.24,30.18,10,10,10,10,4,,0.00,0,,112
2011-10-10,75,62,48,55,49,46,93,65,36,30.18,30.08,29.98,10,9,5,9,2,17,0.00,0,,130
2011-10-11,72,66,59,60,57,52,94,79,56,29.99,29.93,29.86,10,10,5,7,2,,0.02,4,Rain,121
2011-10-12,64,57,50,59,56,50,99,93,79,29.86,29.75,29.61,10,6,0,9,2,,0.34,6,Fog-Rain,104
2011-10-13,67,60,51,57,52,42,97,77,47,29.62,29.58,29.54,10,9,3,23,6,31,0.02,6,Rain,287
2011-10-14,61,54,46,45,40,35,84,64,38,29.76,29.66,29.61,10,10,10,26,9,37,0.00,3,,282
2011-10-15,62,52,43,41,37,32,81,57,33,29.90,29.85,29.78,10,10,10,22,13,32,0.00,1,,270
2011-10-16,61,52,43,46,37,27,97,60,29,29.89,29.84,29.79,10,10,1,24,5,33,0.01,2,Rain,272
2011-10-17,58,48,39,33,31,26,75,53,30,29.91,29.87,29.81,10,10,7,22,8,28,0.03,0,,272
2011-10-18,47,40,32,36,32,29,87,69,57,29.94,29.89,29.82,10,10,10,15,4,20,0.00,4,,327
2011-10-19,49,44,39,37,34,32,80,65,51,29.97,29.92,29.88,10,10,10,17,10,25,0.00,7,,338
2011-10-20,54,48,41,34,32,30,75,59,39,29.92,29.82,29.78,10,10,10,22,13,31,0.00,4,,322
2011-10-21,85,43,27,33,29,26,93,66,30,30.09,30.04,29.97,10,10,10,12,1,,0.00,0,,269
2011-10-22,63,48,32,38,34,31,94,66,32,30.07,30.03,30.00,10,10,10,10,2,,0.00,0,,321
2011-10-23,85,49,31,51,39,31,97,80,42,30.01,29.91,29.78,10,10,1,14,2,38,0.21,2,Rain,243
2011-10-24,85,50,34,44,40,33,98,78,44,30.10,30.02,29.95,10,7,0,12,1,,0.01,1,Fog,193
2011-10-25,70,58,46,51,46,41,90,62,48,29.99,29.80,29.68,10,10,10,12,5,18,0.00,3,,97
2011-10-26,50,46,42,41,37,32,83,73,52,30.05,29.99,29.89,10,10,10,12,7,17,0.00,6,,348
2011-10-27,53,45,35,39,34,29,91,70,40,30.12,30.05,30.01,10,10,7,12,2,16,0.02,4,Rain,278
2011-10-28,56,42,28,34,30,27,95,70,34,30.15,30.08,29.99,10,10,10,13,2,18,0.00,3,,236
2011-10-29,54,41,28,31,25,20,88,59,27,30.10,30.05,30.02,10,10,10,9,1,,0.00,0,,142
2011-10-30,52,46,41,45,34,26,92,65,44,30.01,29.88,29.79,10,10,5,17,7,26,0.13,8,Rain,137
2011-10-31,49,44,38,38,36,33,83,74,58,30.06,30.02,29.93,10,10,10,9,4,,0.00,6,,259